createdAt,value
2022-07-28T00:00:54.677Z,54.77441406
2022-07-28T00:02:01.588Z,54.71679688
2022-07-28T00:02:54.026Z,55.5625
2022-07-28T00:03:55.622Z,56.07519531
2022-07-28T00:04:50.096Z,55.63964844
2022-07-28T00:05:52.529Z,55.48242188
2022-07-28T00:06:46.814Z,55.35644531
2022-07-28T00:07:46.976Z,55.65136719
2022-07-28T00:08:49.189Z,55.46386719
2022-07-28T00:09:50.187Z,55.22070313
2022-07-28T00:11:25.216Z,55.23144531
2022-07-28T00:13:27.898Z,53.95996094
2022-07-28T00:14:26.238Z,53.80566406
2022-07-28T00:16:09.972Z,53.50390625
2022-07-28T00:16:49.381Z,53.8984375
2022-07-28T00:17:48.606Z,53.609375
2022-07-28T00:18:50.203Z,53.81835938
2022-07-28T00:19:46.361Z,54.28027344
2022-07-28T00:20:45.526Z,54.6484375
2022-07-28T00:22:41.083Z,54.65820313
2022-07-28T00:23:39.400Z,54.95019531
2022-07-28T00:24:39.331Z,54.875
2022-07-28T00:25:39.174Z,55.38574219
2022-07-28T00:26:38.726Z,55.23535156
2022-07-28T00:28:39.851Z,55.50976563
2022-07-28T00:29:49.256Z,55.56347656
2022-07-28T00:29:50.226Z,55.56347656
2022-07-28T00:29:50.989Z,55.56347656
2022-07-28T00:30:36.416Z,55.73535156
2022-07-28T00:31:38.542Z,55.70605469
2022-07-28T00:32:30.070Z,55.69628906
2022-07-28T00:33:29.146Z,55.38476563
2022-07-28T00:34:26.623Z,55.88671875
2022-07-28T00:35:30.298Z,55.52441406
2022-07-28T00:35:30.964Z,55.52441406
2022-07-28T00:36:24.726Z,55.83300781
2022-07-28T00:37:17.838Z,55.82421875
2022-07-28T00:38:17.007Z,56.32617188
2022-07-28T00:39:13.660Z,56.00097656
2022-07-28T00:40:13.224Z,56.38769531
2022-07-28T00:41:14.981Z,55.7578125
2022-07-28T00:42:15.661Z,56.0078125
2022-07-28T00:43:11.031Z,56.08300781
2022-07-28T00:44:14.249Z,56.38867188
2022-07-28T00:45:16.259Z,55.88085938
2022-07-28T00:46:08.140Z,56.33789063
2022-07-28T00:47:09.306Z,56.109375
2022-07-28T00:48:01.921Z,56.37207031
2022-07-28T00:49:01.640Z,56.59765625
2022-07-28T00:49:57.043Z,56.8671875
2022-07-28T00:51:00.287Z,56.76464844
2022-07-28T00:52:55.870Z,56.65820313
2022-07-28T00:53:55.791Z,56.82714844
2022-07-28T00:54:54.191Z,56.8828125
2022-07-28T00:56:05.483Z,56.71972656
2022-07-28T00:56:05.996Z,56.71972656
2022-07-28T00:56:06.085Z,56.71972656
2022-07-28T00:56:51.457Z,56.76953125
2022-07-28T00:57:47.571Z,57.015625
2022-07-28T00:58:45.673Z,56.72753906
2022-07-28T00:59:49.409Z,57.15039063
2022-07-28T01:01:15.035Z,56.69921875
2022-07-28T01:01:55.565Z,56.8671875
2022-07-28T01:02:56.757Z,56.42089844
2022-07-28T01:03:56.449Z,56.60351563
2022-07-28T01:04:57.395Z,56.83886719
2022-07-28T01:06:00.702Z,57.14453125
2022-07-28T01:07:57.828Z,57.16113281
2022-07-28T01:08:56.954Z,57.28320313
2022-07-28T01:09:57.358Z,57.4296875
2022-07-28T01:10:52.456Z,57.13964844
2022-07-28T01:11:55.368Z,57.19824219
2022-07-28T01:12:52.340Z,57.26855469
2022-07-28T01:13:52.710Z,56.9921875
2022-07-28T01:14:49.014Z,57.4453125
2022-07-28T01:15:51.181Z,57.52539063
2022-07-28T01:17:52.665Z,57.29492188
2022-07-28T01:18:48.886Z,57.37402344
2022-07-28T01:19:51.731Z,57.36230469
2022-07-28T01:20:48.022Z,57.45410156
2022-07-28T01:22:43.042Z,57.3828125
2022-07-28T01:23:53.147Z,57.49414063
2022-07-28T01:24:55.856Z,57.93652344
2022-07-28T01:25:49.987Z,57.68554688
2022-07-28T01:27:49.581Z,57.67675781
2022-07-28T01:28:51.836Z,57.85351563
2022-07-28T01:29:46.027Z,57.62402344
2022-07-28T01:30:47.890Z,57.75097656
2022-07-28T01:31:40.699Z,57.78710938
2022-07-28T01:32:45.250Z,58.06347656
2022-07-28T01:33:45.315Z,57.80859375
2022-07-28T01:34:42.143Z,57.91015625
2022-07-28T01:35:49.571Z,57.94238281
2022-07-28T01:36:40.010Z,58.09277344
2022-07-28T01:38:39.534Z,57.58300781
2022-07-28T01:39:35.412Z,57.796875
2022-07-28T01:40:35.961Z,58.30957031
2022-07-28T01:42:06.585Z,57.7734375
2022-07-28T01:42:47.556Z,57.70703125
2022-07-28T01:43:53.232Z,58.08984375
2022-07-28T01:44:50.715Z,58.29199219
2022-07-28T01:45:51.172Z,58.06152344
2022-07-28T01:48:08.360Z,57.88867188
2022-07-28T01:48:48.422Z,57.671875
2022-07-28T01:49:50.333Z,57.63769531
2022-07-28T01:50:51.882Z,57.70605469
2022-07-28T01:51:47.142Z,57.63769531
2022-07-28T01:52:47.894Z,57.96484375
2022-07-28T01:53:44.261Z,57.89257813
2022-07-28T01:54:44.102Z,58.00683594
2022-07-28T01:55:46.913Z,58.05664063
2022-07-28T01:57:43.503Z,58.51171875
2022-07-28T01:58:48.346Z,58.28027344
2022-07-28T01:59:43.668Z,58.11816406
2022-07-28T02:00:46.657Z,58.37988281
2022-07-28T02:02:45.171Z,58.14550781
2022-07-28T02:03:41.424Z,58.19921875
2022-07-28T02:04:49.153Z,58.41601563
2022-07-28T02:05:45.462Z,58.56152344
2022-07-28T02:06:45.066Z,58.44726563
2022-07-28T02:07:44.234Z,58.29492188
2022-07-28T02:08:43.342Z,58.32519531
2022-07-28T02:09:39.664Z,58.6640625
2022-07-28T02:10:42.599Z,58.68847656
2022-07-28T02:11:40.299Z,58.62597656
2022-07-28T02:12:36.516Z,58.50292969
2022-07-28T02:13:38.703Z,58.75
2022-07-28T02:14:31.294Z,58.58984375
2022-07-28T02:15:36.504Z,58.6328125
2022-07-28T02:16:29.168Z,58.34667969
2022-07-28T02:17:27.393Z,58.67382813
2022-07-28T02:18:31.610Z,58.78027344
2022-07-28T02:19:33.562Z,58.8984375
2022-07-28T02:20:26.207Z,58.91894531
2022-07-28T02:21:23.387Z,59.14453125
2022-07-28T02:23:19.600Z,58.91796875
2022-07-28T02:24:19.031Z,59.00488281
2022-07-28T02:25:22.038Z,59.22070313
2022-07-28T02:26:24.627Z,59.11816406
2022-07-28T02:28:42.546Z,59.48046875
2022-07-28T02:29:50.671Z,59.53515625
2022-07-28T02:29:50.863Z,59.53515625
2022-07-28T02:29:51.821Z,59.53515625
2022-07-28T02:30:34.430Z,59.17578125
2022-07-28T02:32:49.207Z,59.06445313
2022-07-28T02:33:59.143Z,59.23144531
2022-07-28T02:33:59.352Z,59.23144531
2022-07-28T02:34:00.370Z,59.23144531
2022-07-28T02:34:46.748Z,59.50878906
2022-07-28T02:35:43.031Z,59.3515625
2022-07-28T02:36:43.719Z,59.28417969
2022-07-28T02:38:43.489Z,59.52246094
2022-07-28T02:39:38.811Z,59.26953125
2022-07-28T02:40:38.793Z,59.33300781
2022-07-28T02:41:36.775Z,59.20507813
2022-07-28T02:43:49.631Z,59.11621094
2022-07-28T02:43:49.679Z,59.11621094
2022-07-28T02:44:41.470Z,59.48339844
2022-07-28T02:45:41.836Z,59.37207031
2022-07-28T02:46:38.346Z,59.30273438
2022-07-28T02:48:39.624Z,59.08203125
2022-07-28T02:49:39.712Z,59.48046875
2022-07-28T02:50:35.602Z,59.48046875
2022-07-28T02:51:37.780Z,59.93066406
2022-07-28T02:52:36.120Z,59.75878906
2022-07-28T02:53:45.431Z,59.87890625
2022-07-28T02:54:40.754Z,59.84277344
2022-07-28T02:55:38.244Z,59.96679688
2022-07-28T02:56:37.956Z,60.29882813
2022-07-28T02:57:36.772Z,60.08203125
2022-07-28T02:58:33.317Z,60.04394531
2022-07-28T02:59:41.512Z,59.96386719
2022-07-28T03:00:34.423Z,60.07910156
2022-07-28T03:01:39.461Z,60.28710938
2022-07-28T03:03:46.806Z,60.33691406
2022-07-28T03:04:47.173Z,60.34179688
2022-07-28T03:06:41.526Z,60.06445313
2022-07-28T03:07:24.735Z,60.09472656
2022-07-28T03:08:33.067Z,60.24121094
2022-07-28T03:09:35.952Z,60.45507813
2022-07-28T03:10:32.975Z,60.29980469
2022-07-28T03:11:28.626Z,60.41308594
2022-07-28T03:13:27.731Z,60.34179688
2022-07-28T03:14:24.956Z,60.47460938
2022-07-28T03:15:28.518Z,60.67285156
2022-07-28T03:16:23.882Z,60.48730469
2022-07-28T03:17:23.022Z,60.81347656
2022-07-28T03:18:24.309Z,60.98242188
2022-07-28T03:19:20.982Z,60.61425781
2022-07-28T03:20:17.869Z,60.73730469
2022-07-28T03:21:23.496Z,60.6953125
2022-07-28T03:23:20.588Z,61.04003906
2022-07-28T03:24:23.130Z,61.02246094
2022-07-28T03:25:24.784Z,61.06347656
2022-07-28T03:26:20.979Z,61.19140625
2022-07-28T03:28:17.770Z,61.02539063
2022-07-28T03:29:16.732Z,61.19140625
2022-07-28T03:30:20.539Z,61.3828125
2022-07-28T03:31:20.577Z,61.19921875
2022-07-28T03:33:23.193Z,61.59472656
2022-07-28T03:34:23.590Z,61.74511719
2022-07-28T03:35:19.311Z,61.91113281
2022-07-28T03:36:17.477Z,61.34082031
2022-07-28T03:37:18.504Z,61.55761719
2022-07-28T03:38:12.733Z,61.87597656
2022-07-28T03:39:15.009Z,61.84179688
2022-07-28T03:40:07.355Z,62.05957031
2022-07-28T03:41:09.910Z,61.80957031
2022-07-28T03:43:07.045Z,62.13964844
2022-07-28T03:44:01.785Z,61.85644531
2022-07-28T03:44:57.933Z,61.91308594
2022-07-28T03:46:22.246Z,61.98046875
2022-07-28T03:48:04.359Z,61.69824219
2022-07-28T03:49:00.733Z,61.66308594
2022-07-28T03:50:02.693Z,61.66308594
2022-07-28T03:50:58.101Z,61.98730469
2022-07-28T03:51:59.800Z,62.03515625
2022-07-28T03:52:55.155Z,62.41210938
2022-07-28T03:54:02.814Z,62.10058594
2022-07-28T03:54:57.195Z,62.02148438
2022-07-28T03:55:55.877Z,62.06640625
2022-07-28T03:58:00.661Z,62.02148438
2022-07-28T03:58:55.779Z,62.109375
2022-07-28T03:59:58.324Z,61.99511719
2022-07-28T04:00:52.027Z,61.94921875
2022-07-28T04:02:48.723Z,62.25976563
2022-07-28T04:03:48.097Z,62.07324219
2022-07-28T04:04:53.675Z,62.25878906
2022-07-28T04:05:48.995Z,62.45898438
2022-07-28T04:07:49.346Z,62.515625
2022-07-28T04:08:45.038Z,62.4921875
2022-07-28T04:09:51.109Z,62.51171875
2022-07-28T04:10:46.204Z,62.62695313
2022-07-28T04:11:50.984Z,62.5625
2022-07-28T04:12:50.929Z,62.39746094
2022-07-28T04:13:56.244Z,62.61816406
2022-07-28T04:14:57.064Z,63.06542969
2022-07-28T04:15:57.975Z,62.86328125
2022-07-28T04:18:03.507Z,63.421875
2022-07-28T04:18:56.228Z,62.96582031
2022-07-28T04:19:57.154Z,63.30761719
2022-07-28T04:21:41.482Z,62.67285156
2022-07-28T04:22:22.591Z,62.86816406
2022-07-28T04:23:21.669Z,62.58496094
2022-07-28T04:24:22.023Z,62.61523438
2022-07-28T04:25:22.166Z,62.68261719
2022-07-28T04:26:24.295Z,62.51074219
2022-07-28T04:28:26.349Z,63.31542969
2022-07-28T04:29:23.260Z,63.39453125
2022-07-28T04:30:18.170Z,63.15527344
2022-07-28T04:31:20.311Z,63.23632813
2022-07-28T04:33:26.273Z,63.44140625
2022-07-28T04:34:22.158Z,63.58789063
2022-07-28T04:35:21.338Z,63.38476563
2022-07-28T04:36:17.380Z,63.16894531
2022-07-28T04:37:16.357Z,63.08984375
2022-07-28T04:38:11.768Z,63.203125
2022-07-28T04:39:10.970Z,62.99902344
2022-07-28T04:40:06.952Z,63.93066406
2022-07-28T04:41:05.762Z,63.0390625
2022-07-28T04:42:01.172Z,63.30664063
2022-07-28T04:43:02.651Z,63.12988281
2022-07-28T04:43:55.202Z,63.39453125
2022-07-28T04:44:58.447Z,63.49316406
2022-07-28T04:45:53.871Z,63.45898438
2022-07-28T04:46:49.983Z,63.40820313
2022-07-28T04:47:46.809Z,63.24121094
2022-07-28T04:48:49.514Z,63.43359375
2022-07-28T04:49:45.296Z,63.54003906
2022-07-28T04:50:47.835Z,63.38085938
2022-07-28T04:51:40.342Z,63.27148438
2022-07-28T04:53:37.264Z,63.16601563
2022-07-28T04:54:40.176Z,62.97265625
2022-07-28T04:56:06.827Z,63.19238281
2022-07-28T04:56:46.928Z,62.95800781
2022-07-28T04:58:43.063Z,62.97265625
2022-07-28T04:59:40.269Z,63.29101563
2022-07-28T05:00:40.488Z,62.99414063
2022-07-28T05:01:35.828Z,62.87402344
2022-07-28T05:03:36.413Z,63.37988281
2022-07-28T05:04:30.345Z,63.53613281
2022-07-28T05:05:28.998Z,63.9453125
2022-07-28T05:06:28.835Z,63.69433594
2022-07-28T05:08:27.630Z,63.890625
2022-07-28T05:09:20.127Z,63.86816406
2022-07-28T05:10:17.657Z,63.87207031
2022-07-28T05:11:16.746Z,63.72167969
2022-07-28T05:13:16.867Z,64
2022-07-28T05:14:23.610Z,63.421875
2022-07-28T05:15:18.933Z,63.74414063
2022-07-28T05:16:18.373Z,63.49414063
2022-07-28T05:17:13.705Z,63.96875
2022-07-28T05:18:18.338Z,63.52441406
2022-07-28T05:19:21.910Z,63.78808594
2022-07-28T05:20:16.194Z,63.38476563
2022-07-28T05:21:22.422Z,63.16894531
2022-07-28T05:22:14.495Z,63.22460938
2022-07-28T05:23:14.704Z,62.91894531
2022-07-28T05:24:09.948Z,63.11132813
2022-07-28T05:25:09.463Z,62.93945313
2022-07-28T05:26:05.625Z,63.54296875
2022-07-28T05:28:02.624Z,63.03222656
2022-07-28T05:29:02.440Z,62.95605469
2022-07-28T05:29:57.150Z,63.59179688
2022-07-28T05:30:58.195Z,63.21875
2022-07-28T05:32:57.770Z,63.64355469
2022-07-28T05:33:51.287Z,63.69726563
2022-07-28T05:34:50.797Z,63.15625
2022-07-28T05:35:45.988Z,63.35351563
2022-07-28T05:36:47.995Z,63.35742188
2022-07-28T05:39:42.898Z,63.42382813
2022-07-28T05:40:24.555Z,63.24023438
2022-07-28T05:41:23.823Z,62.66992188
2022-07-28T05:43:25.149Z,62.95898438
2022-07-28T05:44:26.374Z,63.4140625
2022-07-28T05:45:25.417Z,63.12988281
2022-07-28T05:46:26.436Z,63.18652344
2022-07-28T05:47:26.720Z,63.1171875
2022-07-28T05:48:27.888Z,62.53710938
2022-07-28T05:49:24.326Z,62.55859375
2022-07-28T05:50:27.996Z,62.93066406
2022-07-28T05:51:22.210Z,62.56640625
2022-07-28T05:52:24.012Z,62.90234375
2022-07-28T05:53:20.567Z,62.8671875
2022-07-28T05:54:22.155Z,62.98339844
2022-07-28T05:55:18.528Z,62.92382813
2022-07-28T05:56:20.234Z,62.87792969
2022-07-28T05:57:16.790Z,62.69140625
2022-07-28T05:58:18.179Z,62.85058594
2022-07-28T05:59:14.594Z,62.84179688
2022-07-28T06:00:18.816Z,63.22949219
2022-07-28T06:01:13.032Z,62.86425781
2022-07-28T06:03:11.628Z,62.68652344
2022-07-28T06:04:26.889Z,62.53710938
2022-07-28T06:04:27.921Z,62.53710938
2022-07-28T06:04:28.574Z,62.53710938
2022-07-28T06:05:14.687Z,62.54101563
2022-07-28T06:06:16.266Z,62.3515625
2022-07-28T06:06:16.954Z,62.3515625
2022-07-28T06:08:09.596Z,62.16796875
2022-07-28T06:08:46.802Z,61.92773438
2022-07-28T06:09:46.863Z,62.05175781
2022-07-28T06:10:43.368Z,61.98242188
2022-07-28T06:11:44.748Z,61.97558594
2022-07-28T06:13:40.297Z,62.10449219
2022-07-28T06:14:41.639Z,62.29394531
2022-07-28T06:16:18.643Z,62.75292969
2022-07-28T06:17:56.458Z,62.39453125
2022-07-28T06:18:55.649Z,62.46972656
2022-07-28T06:19:53.525Z,63.0625
2022-07-28T06:20:48.838Z,62.94042969
2022-07-28T06:21:48.451Z,62.14648438
2022-07-28T06:23:43.462Z,63.39648438
2022-07-28T06:24:38.797Z,62.66113281
2022-07-28T06:25:38.753Z,62.640625
2022-07-28T06:26:35.452Z,62.88378906
2022-07-28T06:27:37.937Z,62.02050781
2022-07-28T06:28:30.605Z,62.13867188
2022-07-28T06:29:33.473Z,62.07617188
2022-07-28T06:30:26.071Z,62.28417969
2022-07-28T06:31:26.135Z,62.07617188
2022-07-28T06:32:22.310Z,62.34765625
2022-07-28T06:33:21.527Z,61.57617188
2022-07-28T06:34:17.215Z,61.453125
2022-07-28T06:35:17.284Z,61.24609375
2022-07-28T06:36:13.488Z,61.62792969
2022-07-28T06:38:10.892Z,61.33789063
2022-07-28T06:39:06.514Z,61.30859375
2022-07-28T06:40:05.832Z,60.84277344
2022-07-28T06:41:01.003Z,60.80371094
2022-07-28T06:41:58.498Z,60.90625
2022-07-28T06:42:58.751Z,60.60742188
2022-07-28T06:43:54.658Z,60.72265625
2022-07-28T06:44:59.023Z,60.86523438
2022-07-28T06:44:59.878Z,60.86523438
2022-07-28T06:45:55.968Z,60.48046875
2022-07-28T06:46:49.032Z,60.83984375
2022-07-28T06:49:29.640Z,59.94824219
2022-07-28T06:50:24.863Z,60.10546875
2022-07-28T06:50:26.446Z,60.10546875
2022-07-28T06:51:11.303Z,60.28710938
2022-07-28T06:52:07.408Z,59.95996094
2022-07-28T06:53:07.484Z,60.39453125
2022-07-28T06:54:11.046Z,60.14746094
2022-07-28T06:55:03.130Z,59.70507813
2022-07-28T06:56:03.915Z,59.83496094
2022-07-28T06:57:01.650Z,59.31445313
2022-07-28T06:58:05.115Z,59.30371094
2022-07-28T06:58:58.486Z,59.45800781
2022-07-28T06:59:59.270Z,59.32421875
2022-07-28T07:00:55.564Z,58.99316406
2022-07-28T07:01:56.095Z,59.13378906
2022-07-28T07:02:52.224Z,59.125
2022-07-28T07:03:51.621Z,59.22851563
2022-07-28T07:04:53.535Z,59.48730469
2022-07-28T07:05:49.037Z,59.52539063
2022-07-28T07:06:48.110Z,58.55664063
2022-07-28T07:07:44.310Z,58.40820313
2022-07-28T07:08:45.053Z,58.23828125
2022-07-28T07:09:43.580Z,58.35253906
2022-07-28T07:10:39.734Z,58.1953125
2022-07-28T07:11:42.816Z,58.46386719
2022-07-28T07:13:37.139Z,57.76171875
2022-07-28T07:14:33.643Z,58.29394531
2022-07-28T07:15:35.257Z,57.99023438
2022-07-28T07:16:31.508Z,58.03515625
2022-07-28T07:17:32.606Z,57.49316406
2022-07-28T07:18:28.981Z,58.00097656
2022-07-28T07:19:32.465Z,57.42089844
2022-07-28T07:20:27.725Z,57.73632813
2022-07-28T07:21:28.498Z,57.90039063
2022-07-28T07:23:26.035Z,57.24707031
2022-07-28T07:24:22.755Z,57.74316406
2022-07-28T07:25:26.808Z,57.33984375
2022-07-28T07:26:21.102Z,57.40527344
2022-07-28T07:28:18.996Z,57.49023438
2022-07-28T07:29:20.593Z,56.07128906
2022-07-28T07:30:17.786Z,56.88964844
2022-07-28T07:31:21.875Z,57.15039063
2022-07-28T07:33:40.682Z,55.94824219
2022-07-28T07:34:21.105Z,55.76074219
2022-07-28T07:35:20.931Z,56.81445313
2022-07-28T07:36:21.222Z,56.25585938
2022-07-28T07:37:17.691Z,55.33105469
2022-07-28T07:38:19.033Z,55.26953125
2022-07-28T07:39:15.479Z,55.484375
2022-07-28T07:40:17.011Z,55.41308594
2022-07-28T07:41:14.162Z,54.9296875
2022-07-28T07:42:15.053Z,54.63574219
2022-07-28T07:43:11.568Z,54.26367188
2022-07-28T07:44:16.164Z,54.45214844
2022-07-28T07:45:10.130Z,54.94335938
2022-07-28T07:46:11.787Z,53.6328125
2022-07-28T07:48:10.034Z,53.39550781
2022-07-28T07:49:07.719Z,53.15527344
2022-07-28T07:50:09.543Z,53.00878906
2022-07-28T07:51:15.030Z,52.49609375
2022-07-28T07:51:15.610Z,52.49609375
2022-07-28T07:53:08.004Z,52.64746094
2022-07-28T07:54:05.306Z,53.02832031
2022-07-28T07:55:06.559Z,52.80175781
2022-07-28T07:56:06.521Z,52.84667969
2022-07-28T07:58:05.665Z,51.69335938
2022-07-28T07:59:02.596Z,52.38867188
2022-07-28T08:00:07.069Z,51.453125
2022-07-28T08:01:02.144Z,51.94042969
2022-07-28T08:02:03.501Z,52.04980469
2022-07-28T08:03:00.145Z,52.01074219
2022-07-28T08:04:01.926Z,51.84082031
2022-07-28T08:04:58.978Z,51.26171875
2022-07-28T08:06:00.825Z,51.30371094
2022-07-28T08:08:00.052Z,52.390625
2022-07-28T08:08:57.142Z,51.1875
2022-07-28T08:09:59.456Z,51.33105469
2022-07-28T08:10:56.691Z,50.95800781
2022-07-28T08:12:01.173Z,51.4453125
2022-07-28T08:14:00.469Z,51.91308594
2022-07-28T08:14:55.639Z,51.89355469
2022-07-28T08:16:00.231Z,51.34570313
2022-07-28T08:16:54.897Z,51.55371094
2022-07-28T08:17:57.044Z,51.05566406
2022-07-28T08:18:55.141Z,51.77832031
2022-07-28T08:19:56.653Z,49.98046875
2022-07-28T08:20:54.002Z,50.52050781
2022-07-28T08:21:56.289Z,51.60644531
2022-07-28T08:22:53.538Z,50.49121094
2022-07-28T08:23:55.788Z,50.71875
2022-07-28T08:24:53.766Z,50.94042969
2022-07-28T08:25:58.274Z,50.0703125
2022-07-28T08:26:53.619Z,51.57714844
2022-07-28T08:29:36.585Z,50.36230469
2022-07-28T08:30:17.137Z,49.79394531
2022-07-28T08:30:23.174Z,49.79394531
2022-07-28T08:31:15.881Z,50.89746094
2022-07-28T08:32:16.727Z,48.9609375
2022-07-28T08:33:12.774Z,48.77636719
2022-07-28T08:34:26.386Z,48.90625
2022-07-28T08:34:31.130Z,48.90625
2022-07-28T08:35:32.412Z,49.74902344
2022-07-28T08:35:32.808Z,49.74902344
2022-07-28T08:35:33.049Z,49.74902344
2022-07-28T08:36:11.133Z,48.82910156
2022-07-28T08:37:07.692Z,49.00878906
2022-07-28T08:38:08.583Z,48.55566406
2022-07-28T08:39:05.278Z,48.54199219
2022-07-28T08:40:05.805Z,48.23828125
2022-07-28T08:41:02.003Z,48.8984375
2022-07-28T08:41:59.960Z,49.56445313
2022-07-28T08:43:00.588Z,49.47558594
2022-07-28T08:43:56.848Z,49.60351563
2022-07-28T08:44:57.045Z,50.27734375
2022-07-28T08:45:58.135Z,48.66308594
2022-07-28T08:45:58.744Z,48.66308594
2022-07-28T08:46:56.269Z,48.04003906
2022-07-28T08:48:50.827Z,48.29589844
2022-07-28T08:49:47.061Z,49.00683594
2022-07-28T08:50:45.598Z,47.57421875
2022-07-28T08:51:46.539Z,48.30371094
2022-07-28T08:53:43.554Z,49.32421875
2022-07-28T08:54:39.567Z,48.30371094
2022-07-28T08:55:42.923Z,48.17871094
2022-07-28T08:56:36.470Z,47.88378906
2022-07-28T08:58:35.514Z,47.12792969
2022-07-28T08:59:31.638Z,47.72363281
2022-07-28T09:00:34.817Z,47.57714844
2022-07-28T09:01:38.918Z,47.32128906
2022-07-28T09:01:38.946Z,47.32128906
2022-07-28T09:01:39.198Z,47.32128906
2022-07-28T09:03:33.356Z,47.98828125
2022-07-28T09:03:59.392Z,48.66503906
2022-07-28T09:05:00.463Z,47.73632813
2022-07-28T09:05:56.539Z,47.16503906
2022-07-28T09:06:56.805Z,47.61230469
2022-07-28T09:08:53.010Z,47.19824219
2022-07-28T09:09:48.696Z,47.28613281
2022-07-28T09:10:49.503Z,48.74609375
2022-07-28T09:11:45.115Z,48.17773438
2022-07-28T09:13:40.938Z,47.86914063
2022-07-28T09:14:41.677Z,47.47851563
2022-07-28T09:15:37.302Z,46.65429688
2022-07-28T09:16:37.833Z,47.15429688
2022-07-28T09:17:33.209Z,47.27832031
2022-07-28T09:18:33.659Z,47.390625
2022-07-28T09:19:34.489Z,47.74023438
2022-07-28T09:20:29.976Z,47.44921875
2022-07-28T09:21:26.027Z,47.25390625
2022-07-28T09:23:42.158Z,48.1171875
2022-07-28T09:23:42.516Z,48.1171875
2022-07-28T09:23:43.342Z,48.1171875
2022-07-28T09:24:24.958Z,47.1015625
2022-07-28T09:25:18.279Z,46.64941406
2022-07-28T09:26:18.401Z,47.79199219
2022-07-28T09:28:14.168Z,46.609375
2022-07-28T09:29:09.494Z,47.31933594
2022-07-28T09:30:09.735Z,47.25097656
2022-07-28T09:31:05.055Z,48.16210938
2022-07-28T09:32:03.063Z,48.31933594
2022-07-28T09:33:58.197Z,47.82617188
2022-07-28T09:34:58.431Z,47.90136719
2022-07-28T09:35:53.791Z,48.93847656
2022-07-28T09:36:56.644Z,49.04589844
2022-07-28T09:37:49.452Z,47.6953125
2022-07-28T09:38:52.339Z,48.71289063
2022-07-28T09:39:45.118Z,48.12597656
2022-07-28T09:40:48.170Z,47.88769531
2022-07-28T09:41:42.335Z,47.78808594
2022-07-28T09:43:37.351Z,47.91113281
2022-07-28T09:44:37.406Z,48.02734375
2022-07-28T09:45:35.503Z,47.41210938
2022-07-28T09:46:30.997Z,46.58398438
2022-07-28T09:48:26.483Z,46.89941406
2022-07-28T09:49:28.625Z,47.86230469
2022-07-28T09:51:06.463Z,46.98144531
2022-07-28T09:53:00.676Z,47.65332031
2022-07-28T09:53:41.128Z,47.36816406
2022-07-28T09:54:41.223Z,47.10351563
2022-07-28T09:55:39.713Z,47.72167969
2022-07-28T09:56:35.625Z,46.31640625
2022-07-28T09:58:33.631Z,45.50683594
2022-07-28T09:58:59.515Z,45.25976563
2022-07-28T09:59:57.429Z,45.65625
2022-07-28T10:00:58.009Z,44.83496094
2022-07-28T10:01:53.620Z,45.70996094
2022-07-28T10:02:54.135Z,45.5859375
2022-07-28T10:03:49.438Z,46.58203125
2022-07-28T10:04:49.436Z,46.38085938
2022-07-28T10:05:44.916Z,45.21484375
2022-07-28T10:06:45.075Z,45.74316406
2022-07-28T10:07:40.352Z,45.90527344
2022-07-28T10:08:42.637Z,46.50683594
2022-07-28T10:09:35.253Z,45.79199219
2022-07-28T10:10:36.025Z,45.67285156
2022-07-28T10:11:31.296Z,45.54492188
2022-07-28T10:12:33.799Z,44.83984375
2022-07-28T10:13:26.746Z,44.95019531
2022-07-28T10:14:29.395Z,45.01855469
2022-07-28T10:15:31.182Z,45.4375
2022-07-28T10:15:31.305Z,45.4375
2022-07-28T10:16:20.604Z,45.53125
2022-07-28T10:17:21.220Z,45.35351563
2022-07-28T10:18:16.634Z,45.12597656
2022-07-28T10:19:16.536Z,45.71582031
2022-07-28T10:20:11.752Z,45.85644531
2022-07-28T10:21:11.752Z,45.453125
2022-07-28T10:22:07.156Z,45.97265625
2022-07-28T10:24:02.880Z,45.56445313
2022-07-28T10:25:02.853Z,45.05273438
2022-07-28T10:25:58.070Z,45.25976563
2022-07-28T10:26:58.164Z,45.55078125
2022-07-28T10:28:53.506Z,45.31152344
2022-07-28T10:29:48.730Z,45.31152344
2022-07-28T10:30:48.783Z,46.14550781
2022-07-28T10:31:44.261Z,45.875
2022-07-28T10:33:39.340Z,45.77539063
2022-07-28T10:34:42.134Z,46.078125
2022-07-28T10:35:34.832Z,46.48632813
2022-07-28T10:35:51.015Z,46.48632813
2022-07-28T10:35:54.472Z,46.48632813
2022-07-28T10:36:35.671Z,46.27832031
2022-07-28T10:38:33.650Z,45.40527344
2022-07-28T10:39:26.379Z,45.61914063
2022-07-28T10:40:26.448Z,45.27246094
2022-07-28T10:41:21.723Z,45.515625
2022-07-28T10:42:21.620Z,45.33007813
2022-07-28T10:43:18.267Z,44.96875
2022-07-28T10:44:18.859Z,44.68945313
2022-07-28T10:46:04.472Z,45.55859375
2022-07-28T10:46:04.938Z,45.55859375
2022-07-28T10:46:05.549Z,45.55859375
2022-07-28T10:46:23.824Z,44.25097656
2022-07-28T10:48:25.599Z,44.984375
2022-07-28T10:49:21.557Z,44.82617188
2022-07-28T10:50:17.300Z,44.08203125
2022-07-28T10:51:17.820Z,45.34472656
2022-07-28T10:53:12.291Z,43.99414063
2022-07-28T10:54:17.648Z,44.02636719
2022-07-28T10:54:18.933Z,44.02636719
2022-07-28T10:54:25.066Z,44.02636719
2022-07-28T10:55:13.745Z,44.12207031
2022-07-28T10:56:09.017Z,44.42773438
2022-07-28T10:57:09.169Z,44.94726563
2022-07-28T10:59:05.487Z,43.92578125
2022-07-28T11:00:12.140Z,43.32421875
2022-07-28T11:00:13.255Z,43.32421875
2022-07-28T11:00:14.317Z,43.32421875
2022-07-28T11:01:06.398Z,43.53125
2022-07-28T11:02:01.261Z,44.71679688
2022-07-28T11:03:57.577Z,43.92871094
2022-07-28T11:04:53.064Z,44.77441406
2022-07-28T11:05:54.909Z,43.70800781
2022-07-28T11:06:50.444Z,44.25097656
2022-07-28T11:07:52.420Z,44.38085938
2022-07-28T11:08:48.015Z,44.40527344
2022-07-28T11:09:48.449Z,44.65234375
2022-07-28T11:10:45.220Z,45.10644531
2022-07-28T11:11:45.417Z,45.58105469
2022-07-28T11:12:41.274Z,44.58203125
2022-07-28T11:13:43.881Z,44.18554688
2022-07-28T11:14:38.110Z,44.09863281
2022-07-28T11:15:35.605Z,43.84570313
2022-07-28T11:16:39.370Z,43.76660156
2022-07-28T11:17:33.492Z,45.25097656
2022-07-28T11:18:33.017Z,43.31640625
2022-07-28T11:19:40.761Z,42.9296875
2022-07-28T11:19:40.774Z,42.9296875
2022-07-28T11:19:51.536Z,42.9296875
2022-07-28T11:20:30.197Z,43.40722656
2022-07-28T11:21:25.727Z,43.18261719
2022-07-28T11:21:39.454Z,43.18261719
2022-07-28T11:21:39.680Z,43.18261719
2022-07-28T11:22:27.285Z,43.38378906
2022-07-28T11:23:23.578Z,43.01660156